Decoded Metar for YESP ( in ) (IATA:) | Meteo·Mobile Aviation Weather
aviador You're here:

YESP Decoded Metar

in
Report Time2019-02-19 13:00:00
UTC Time2019-02-19 13:23:22
Flight Rules vfr VFR
Wind070° at 15 kt
W.Decomp.*RWY 11: 11.5 kt HW 9.6 kt LCW
RWY 03: 11.5 kt HW 9.6 kt RCW
W.Rank070° ranks 9
Current wind is above 070° avg. (7.2)
Visibility9999 m
Phenomena:N/A
Clouds:N/A
Expected CloudBase > 1,600 ft AGL from Temp-Dew spread
CeilingNone
Temp17°C
Dew Point13°C (77% RH)
AAT12.5°C
QNH1018 hPa
Raw Report
METAR YESP 191300Z AUTO 07015KT 9999 // NCD 17/13 Q1018=

Extra information for YESP:More info

Social comments